sensor_id;sensor_type;location;lat;lon;timestamp;pressure;altitude;pressure_sealevel;temperature;humidity
56630;BME280;42502;40.732;-74.254;2023-03-18T00:01:00;99295.59;;;19.67;38.28
56630;BME280;42502;40.732;-74.254;2023-03-18T00:03:09;99285.22;;;19.68;38.46
56630;BME280;42502;40.732;-74.254;2023-03-18T00:05:10;99282.81;;;19.70;38.40
56630;BME280;42502;40.732;-74.254;2023-03-18T00:07:12;99263.59;;;19.68;38.28
56630;BME280;42502;40.732;-74.254;2023-03-18T00:09:14;99251.19;;;19.69;38.55
56630;BME280;42502;40.732;-74.254;2023-03-18T00:11:18;99248.78;;;19.68;38.58
56630;BME280;42502;40.732;-74.254;2023-03-18T00:13:20;99244.78;;;19.69;38.08
56630;BME280;42502;40.732;-74.254;2023-03-18T00:15:21;99237.56;;;19.68;38.29
56630;BME280;42502;40.732;-74.254;2023-03-18T00:17:22;99258.41;;;19.70;38.48
56630;BME280;42502;40.732;-74.254;2023-03-18T00:19:23;99250.38;;;19.69;38.32
56630;BME280;42502;40.732;-74.254;2023-03-18T00:21:24;99244.38;;;19.67;38.61
56630;BME280;42502;40.732;-74.254;2023-03-18T00:23:27;99251.19;;;19.69;38.42
56630;BME280;42502;40.732;-74.254;2023-03-18T00:25:28;99252.75;;;19.67;38.32
56630;BME280;42502;40.732;-74.254;2023-03-18T00:27:29;99254.81;;;19.70;38.52
56630;BME280;42502;40.732;-74.254;2023-03-18T00:29:30;99253.19;;;19.69;38.46
56630;BME280;42502;40.732;-74.254;2023-03-18T00:31:31;99247.56;;;19.69;38.45
56630;BME280;42502;40.732;-74.254;2023-03-18T00:33:35;99249.16;;;19.66;38.34
56630;BME280;42502;40.732;-74.254;2023-03-18T00:35:37;99264.38;;;19.69;38.49
56630;BME280;42502;40.732;-74.254;2023-03-18T00:37:38;99263.59;;;19.68;38.53
56630;BME280;42502;40.732;-74.254;2023-03-18T00:39:39;99275.59;;;19.69;38.38
56630;BME280;42502;40.732;-74.254;2023-03-18T00:41:43;99246.75;;;19.65;38.48
56630;BME280;42502;40.732;-74.254;2023-03-18T00:43:46;99258.75;;;19.65;38.57
56630;BME280;42502;40.732;-74.254;2023-03-18T00:46:01;99269.19;;;19.68;38.43
56630;BME280;42502;40.732;-74.254;2023-03-18T00:48:03;99266.38;;;19.68;38.33
56630;BME280;42502;40.732;-74.254;2023-03-18T00:50:06;99260.78;;;19.68;38.50
56630;BME280;42502;40.732;-74.254;2023-03-18T00:52:07;99258.78;;;19.69;38.49
56630;BME280;42502;40.732;-74.254;2023-03-18T00:54:11;99256.38;;;19.67;38.34
56630;BME280;42502;40.732;-74.254;2023-03-18T00:56:14;99267.19;;;19.69;38.47
56630;BME280;42502;40.732;-74.254;2023-03-18T00:58:15;99263.56;;;19.65;38.27
56630;BME280;42502;40.732;-74.254;2023-03-18T01:00:16;99271.19;;;19.68;38.28
56630;BME280;42502;40.732;-74.254;2023-03-18T01:02:17;99267.56;;;19.67;38.46
56630;BME280;42502;40.732;-74.254;2023-03-18T01:04:18;99269.19;;;19.68;38.36
56630;BME280;42502;40.732;-74.254;2023-03-18T01:06:24;99264.75;;;19.67;38.34
56630;BME280;42502;40.732;-74.254;2023-03-18T01:08:25;99266.78;;;19.67;38.29
56630;BME280;42502;40.732;-74.254;2023-03-18T01:10:26;99265.97;;;19.66;38.37
56630;BME280;42502;40.732;-74.254;2023-03-18T01:12:29;99282.78;;;19.66;38.48
56630;BME280;42502;40.732;-74.254;2023-03-18T01:14:30;99275.53;;;19.62;38.25
56630;BME280;42502;40.732;-74.254;2023-03-18T01:16:31;99271.09;;;19.61;38.44
56630;BME280;42502;40.732;-74.254;2023-03-18T01:18:32;99295.59;;;19.67;38.55
56630;BME280;42502;40.732;-74.254;2023-03-18T01:20:33;99282.78;;;19.66;38.36
56630;BME280;42502;40.732;-74.254;2023-03-18T01:22:38;99291.19;;;19.66;38.35
56630;BME280;42502;40.732;-74.254;2023-03-18T01:24:42;99304.00;;;19.67;38.31
56630;BME280;42502;40.732;-74.254;2023-03-18T01:26:44;99289.16;;;19.63;38.17
56630;BME280;42502;40.732;-74.254;2023-03-18T01:28:45;99292.78;;;19.67;38.46
56630;BME280;42502;40.732;-74.254;2023-03-18T01:30:47;99290.75;;;19.64;38.22
56630;BME280;42502;40.732;-74.254;2023-03-18T01:32:48;99304.38;;;19.66;38.43
56630;BME280;42502;40.732;-74.254;2023-03-18T01:34:49;99290.75;;;19.64;38.31
56630;BME280;42502;40.732;-74.254;2023-03-18T01:36:50;99281.53;;;19.64;38.45
56630;BME280;42502;40.732;-74.254;2023-03-18T01:38:51;99282.72;;;19.63;38.50
56630;BME280;42502;40.732;-74.254;2023-03-18T01:40:52;99289.94;;;19.64;38.31
56630;BME280;42502;40.732;-74.254;2023-03-18T01:43:03;99300.78;;;19.65;38.43
56630;BME280;42502;40.732;-74.254;2023-03-18T01:45:26;99292.38;;;19.65;38.31
56630;BME280;42502;40.732;-74.254;2023-03-18T01:47:27;99278.31;;;19.62;38.16
56630;BME280;42502;40.732;-74.254;2023-03-18T01:49:41;99289.94;;;19.64;38.21
56630;BME280;42502;40.732;-74.254;2023-03-18T01:51:50;99304.75;;;19.64;38.08
56630;BME280;42502;40.732;-74.254;2023-03-18T01:53:52;99296.72;;;19.63;38.19
56630;BME280;42502;40.732;-74.254;2023-03-18T01:55:54;99303.97;;;19.64;38.37
56630;BME280;42502;40.732;-74.254;2023-03-18T01:57:57;99307.56;;;19.64;38.39
56630;BME280;42502;40.732;-74.254;2023-03-18T02:00:03;99302.72;;;19.61;38.20
56630;BME280;42502;40.732;-74.254;2023-03-18T02:02:07;99299.53;;;19.63;38.36
56630;BME280;42502;40.732;-74.254;2023-03-18T02:04:12;99294.75;;;19.63;38.36
56630;BME280;42502;40.732;-74.254;2023-03-18T02:06:13;99301.16;;;19.64;38.29
56630;BME280;42502;40.732;-74.254;2023-03-18T02:08:15;99294.75;;;19.63;38.24
56630;BME280;42502;40.732;-74.254;2023-03-18T02:10:22;99297.56;;;19.63;38.27
56630;BME280;42502;40.732;-74.254;2023-03-18T02:12:28;99277.50;;;19.61;38.39
56630;BME280;42502;40.732;-74.254;2023-03-18T02:14:29;99289.16;;;19.63;38.24
56630;BME280;42502;40.732;-74.254;2023-03-18T02:16:38;99293.13;;;19.62;38.41
56630;BME280;42502;40.732;-74.254;2023-03-18T02:18:46;99297.94;;;19.62;38.42
56630;BME280;42502;40.732;-74.254;2023-03-18T02:21:04;99304.34;;;19.62;38.50
56630;BME280;42502;40.732;-74.254;2023-03-18T02:27:56;99318.34;;;19.62;38.46
56630;BME280;42502;40.732;-74.254;2023-03-18T02:30:06;99314.75;;;19.62;38.50
56630;BME280;42502;40.732;-74.254;2023-03-18T02:32:12;99306.66;;;19.57;38.51
56630;BME280;42502;40.732;-74.254;2023-03-18T02:34:14;99313.91;;;19.61;38.29
56630;BME280;42502;40.732;-74.254;2023-03-18T02:36:22;99300.69;;;19.58;38.49
56630;BME280;42502;40.732;-74.254;2023-03-18T02:38:24;99308.69;;;19.60;38.51
56630;BME280;42502;40.732;-74.254;2023-03-18T02:40:33;99304.25;;;19.55;38.47
56630;BME280;42502;40.732;-74.254;2023-03-18T02:42:38;99312.75;;;19.62;38.60
56630;BME280;42502;40.732;-74.254;2023-03-18T02:44:43;99297.13;;;19.61;38.54
56630;BME280;42502;40.732;-74.254;2023-03-18T02:47:01;99305.53;;;19.61;38.33
56630;BME280;42502;40.732;-74.254;2023-03-18T02:49:05;99294.75;;;19.63;38.38
56630;BME280;42502;40.732;-74.254;2023-03-18T02:51:14;99295.94;;;19.62;38.64
56630;BME280;42502;40.732;-74.254;2023-03-18T02:53:15;99294.69;;;19.60;38.41
56630;BME280;42502;40.732;-74.254;2023-03-18T02:55:16;99308.31;;;19.61;38.45
56630;BME280;42502;40.732;-74.254;2023-03-18T02:57:20;99301.50;;;19.59;38.45
56630;BME280;42502;40.732;-74.254;2023-03-18T02:59:24;99310.31;;;19.61;38.57
56630;BME280;42502;40.732;-74.254;2023-03-18T03:01:25;99305.09;;;19.59;38.41
56630;BME280;42502;40.732;-74.254;2023-03-18T03:03:29;99301.88;;;19.57;38.70
56630;BME280;42502;40.732;-74.254;2023-03-18T03:05:32;99300.69;;;19.58;38.56
56630;BME280;42502;40.732;-74.254;2023-03-18T03:07:33;99287.50;;;19.59;38.66
56630;BME280;42502;40.732;-74.254;2023-03-18T03:09:34;99293.50;;;19.61;38.51
56630;BME280;42502;40.732;-74.254;2023-03-18T03:11:39;99281.03;;;19.55;38.59
56630;BME280;42502;40.732;-74.254;2023-03-18T03:13:41;99288.28;;;19.59;38.39
56630;BME280;42502;40.732;-74.254;2023-03-18T03:15:44;99290.72;;;19.61;38.47
56630;BME280;42502;40.732;-74.254;2023-03-18T03:17:45;99286.28;;;19.60;38.63
56630;BME280;42502;40.732;-74.254;2023-03-18T03:19:47;99290.72;;;19.61;38.65
56630;BME280;42502;40.732;-74.254;2023-03-18T03:21:48;99279.50;;;19.61;38.55
56630;BME280;42502;40.732;-74.254;2023-03-18T03:23:49;99281.44;;;19.57;38.64
56630;BME280;42502;40.732;-74.254;2023-03-18T03:25:50;99293.50;;;19.61;38.55
56630;BME280;42502;40.732;-74.254;2023-03-18T03:27:52;99285.06;;;19.57;38.64
56630;BME280;42502;40.732;-74.254;2023-03-18T03:29:53;99285.09;;;19.61;38.61
56630;BME280;42502;40.732;-74.254;2023-03-18T03:31:55;99282.69;;;19.59;38.38
56630;BME280;42502;40.732;-74.254;2023-03-18T03:33:55;99279.50;;;19.61;38.46
56630;BME280;42502;40.732;-74.254;2023-03-18T03:35:59;99285.50;;;19.59;38.46
56630;BME280;42502;40.732;-74.254;2023-03-18T03:38:02;99289.53;;;19.62;38.47
56630;BME280;42502;40.732;-74.254;2023-03-18T03:40:18;99283.88;;;19.58;38.40
56630;BME280;42502;40.732;-74.254;2023-03-18T03:42:19;99282.69;;;19.59;38.48
56630;BME280;42502;40.732;-74.254;2023-03-18T03:44:23;99275.47;;;19.58;38.69
56630;BME280;42502;40.732;-74.254;2023-03-18T03:46:24;99273.88;;;19.57;38.52
56630;BME280;42502;40.732;-74.254;2023-03-18T03:48:25;99272.25;;;19.56;38.64
56630;BME280;42502;40.732;-74.254;2023-03-18T03:50:26;99262.66;;;19.57;38.61
56630;BME280;42502;40.732;-74.254;2023-03-18T03:52:27;99269.06;;;19.58;38.52
56630;BME280;42502;40.732;-74.254;2023-03-18T03:54:28;99271.06;;;19.57;38.42
56630;BME280;42502;40.732;-74.254;2023-03-18T03:56:29;99281.91;;;19.59;38.45
56630;BME280;42502;40.732;-74.254;2023-03-18T03:58:33;99277.47;;;19.58;38.63
56630;BME280;42502;40.732;-74.254;2023-03-18T04:00:34;99263.06;;;19.56;38.40
56630;BME280;42502;40.732;-74.254;2023-03-18T04:02:39;99272.25;;;19.56;38.46
56630;BME280;42502;40.732;-74.254;2023-03-18T04:04:43;99272.25;;;19.56;38.64
56630;BME280;42502;40.732;-74.254;2023-03-18T04:06:44;99274.66;;;19.58;38.38
56630;BME280;42502;40.732;-74.254;2023-03-18T04:08:48;99275.47;;;19.58;38.63
56630;BME280;42502;40.732;-74.254;2023-03-18T04:10:52;99273.03;;;19.57;38.53
56630;BME280;42502;40.732;-74.254;2023-03-18T04:12:53;99271.00;;;19.53;38.41
56630;BME280;42502;40.732;-74.254;2023-03-18T04:14:54;99255.41;;;19.52;38.51
56630;BME280;42502;40.732;-74.254;2023-03-18T04:16:55;99271.47;;;19.56;38.58
56630;BME280;42502;40.732;-74.254;2023-03-18T04:18:57;99271.00;;;19.53;38.46
56630;BME280;42502;40.732;-74.254;2023-03-18T04:20:58;99272.25;;;19.56;38.27
56630;BME280;42502;40.732;-74.254;2023-03-18T04:23:00;99270.63;;;19.55;38.45
56630;BME280;42502;40.732;-74.254;2023-03-18T04:25:01;99266.22;;;19.54;38.26
56630;BME280;42502;40.732;-74.254;2023-03-18T04:27:02;99267.81;;;19.55;38.40
56630;BME280;42502;40.732;-74.254;2023-03-18T04:29:03;99279.84;;;19.56;38.43
56630;BME280;42502;40.732;-74.254;2023-03-18T04:31:04;99274.25;;;19.56;38.51
56630;BME280;42502;40.732;-74.254;2023-03-18T04:33:05;99285.00;;;19.53;38.54
56630;BME280;42502;40.732;-74.254;2023-03-18T04:35:08;99279.38;;;19.50;38.57
56630;BME280;42502;40.732;-74.254;2023-03-18T04:37:12;99287.41;;;19.51;38.34
56630;BME280;42502;40.732;-74.254;2023-03-18T04:39:13;99295.84;;;19.55;38.24
56630;BME280;42502;40.732;-74.254;2023-03-18T04:41:14;99292.63;;;19.53;38.44
56630;BME280;42502;40.732;-74.254;2023-03-18T04:43:15;99295.84;;;19.55;38.36
56630;BME280;42502;40.732;-74.254;2023-03-18T04:45:16;99293.41;;;19.53;38.42
56630;BME280;42502;40.732;-74.254;2023-03-18T04:47:20;99284.97;;;19.50;38.17
56630;BME280;42502;40.732;-74.254;2023-03-18T04:49:20;99299.84;;;19.54;38.35
56630;BME280;42502;40.732;-74.254;2023-03-18T04:51:21;99294.25;;;19.54;38.38
56630;BME280;42502;40.732;-74.254;2023-03-18T04:53:22;99279.31;;;19.46;38.29
56630;BME280;42502;40.732;-74.254;2023-03-18T04:55:23;99281.78;;;19.51;38.15
56630;BME280;42502;40.732;-74.254;2023-03-18T04:57:24;99272.16;;;19.49;38.33
56630;BME280;42502;40.732;-74.254;2023-03-18T04:59:25;99268.97;;;19.50;38.33
56630;BME280;42502;40.732;-74.254;2023-03-18T05:01:26;99275.81;;;19.53;38.17
56630;BME280;42502;40.732;-74.254;2023-03-18T05:03:27;99277.00;;;19.52;38.48
56630;BME280;42502;40.732;-74.254;2023-03-18T05:05:28;99279.75;;;19.48;38.20
56630;BME280;42502;40.732;-74.254;2023-03-18T05:07:29;99291.81;;;19.52;38.33
56630;BME280;42502;40.732;-74.254;2023-03-18T05:09:34;99286.94;;;19.49;38.15
56630;BME280;42502;40.732;-74.254;2023-03-18T05:11:35;99294.19;;;19.50;38.23
56630;BME280;42502;40.732;-74.254;2023-03-18T05:13:36;99289.03;;;19.52;38.48
56630;BME280;42502;40.732;-74.254;2023-03-18T05:15:39;99289.38;;;19.51;38.11
56630;BME280;42502;40.732;-74.254;2023-03-18T05:17:40;99305.38;;;19.50;38.19
56630;BME280;42502;40.732;-74.254;2023-03-18T05:19:46;99297.78;;;19.51;38.20
56630;BME280;42502;40.732;-74.254;2023-03-18T05:21:47;99303.75;;;19.49;38.29
56630;BME280;42502;40.732;-74.254;2023-03-18T05:23:49;99305.38;;;19.50;38.09
56630;BME280;42502;40.732;-74.254;2023-03-18T05:25:50;99308.19;;;19.50;38.21
56630;BME280;42502;40.732;-74.254;2023-03-18T05:27:51;99306.94;;;19.48;38.23
56630;BME280;42502;40.732;-74.254;2023-03-18T05:29:53;99310.19;;;19.50;38.28
56630;BME280;42502;40.732;-74.254;2023-03-18T05:31:55;99304.91;;;19.45;38.25
56630;BME280;42502;40.732;-74.254;2023-03-18T05:33:56;99323.38;;;19.49;38.27
56630;BME280;42502;40.732;-74.254;2023-03-18T05:35:57;99319.75;;;19.49;38.14
56630;BME280;42502;40.732;-74.254;2023-03-18T05:37:58;99321.31;;;19.46;38.16
56630;BME280;42502;40.732;-74.254;2023-03-18T05:39:58;99323.38;;;19.49;38.19
56630;BME280;42502;40.732;-74.254;2023-03-18T05:42:00;99318.97;;;19.48;37.99
56630;BME280;42502;40.732;-74.254;2023-03-18T05:44:01;99304.13;;;19.48;38.09
56630;BME280;42502;40.732;-74.254;2023-03-18T05:46:02;99307.31;;;19.46;38.11
56630;BME280;42502;40.732;-74.254;2023-03-18T05:48:04;99313.31;;;19.45;37.96
56630;BME280;42502;40.732;-74.254;2023-03-18T05:50:06;99314.94;;;19.46;38.05
56630;BME280;42502;40.732;-74.254;2023-03-18T05:52:07;99306.09;;;19.44;37.94
56630;BME280;42502;40.732;-74.254;2023-03-18T05:54:09;99308.16;;;19.47;38.00
56630;BME280;42502;40.732;-74.254;2023-03-18T05:56:13;99299.69;;;19.43;38.18
56630;BME280;42502;40.732;-74.254;2023-03-18T05:58:14;99301.69;;;19.43;37.81
56630;BME280;42502;40.732;-74.254;2023-03-18T06:00:15;99300.91;;;19.46;37.95
56630;BME280;42502;40.732;-74.254;2023-03-18T06:02:21;99310.09;;;19.43;37.90
56630;BME280;42502;40.732;-74.254;2023-03-18T06:04:22;99306.53;;;19.46;38.10
56630;BME280;42502;40.732;-74.254;2023-03-18T06:06:24;99297.69;;;19.44;38.02
56630;BME280;42502;40.732;-74.254;2023-03-18T06:08:26;99290.09;;;19.44;37.94
56630;BME280;42502;40.732;-74.254;2023-03-18T06:10:26;99284.88;;;19.43;37.95
56630;BME280;42502;40.732;-74.254;2023-03-18T06:12:28;99275.69;;;19.42;38.16
56630;BME280;42502;40.732;-74.254;2023-03-18T06:14:29;99282.50;;;19.45;38.08
56630;BME280;42502;40.732;-74.254;2023-03-18T06:16:32;99288.84;;;19.42;37.88
56630;BME280;42502;40.732;-74.254;2023-03-18T06:18:37;99290.44;;;19.39;37.97
56630;BME280;42502;40.732;-74.254;2023-03-18T06:20:38;99287.25;;;19.41;38.09
56630;BME280;42502;40.732;-74.254;2023-03-18T06:22:39;99299.69;;;19.43;38.24
56630;BME280;42502;40.732;-74.254;2023-03-18T06:24:40;99296.88;;;19.43;37.97
56630;BME280;42502;40.732;-74.254;2023-03-18T06:26:43;99306.03;;;19.40;38.09
56630;BME280;42502;40.732;-74.254;2023-03-18T06:28:45;99316.47;;;19.43;38.15
56630;BME280;42502;40.732;-74.254;2023-03-18T06:30:46;99304.44;;;19.39;37.97
56630;BME280;42502;40.732;-74.254;2023-03-18T06:32:47;99308.47;;;19.42;38.20
56630;BME280;42502;40.732;-74.254;2023-03-18T06:34:48;99314.81;;;19.39;37.81
56630;BME280;42502;40.732;-74.254;2023-03-18T06:36:49;99309.66;;;19.41;37.91
56630;BME280;42502;40.732;-74.254;2023-03-18T06:38:50;99305.66;;;19.42;38.02
56630;BME280;42502;40.732;-74.254;2023-03-18T06:40:51;99300.03;;;19.38;38.03
56630;BME280;42502;40.732;-74.254;2023-03-18T06:42:53;99305.63;;;19.38;37.99
56630;BME280;42502;40.732;-74.254;2023-03-18T06:44:54;99321.66;;;19.41;38.00
56630;BME280;42502;40.732;-74.254;2023-03-18T06:46:55;99309.66;;;19.41;37.98
56630;BME280;42502;40.732;-74.254;2023-03-18T06:48:56;99319.25;;;19.40;37.78
56630;BME280;42502;40.732;-74.254;2023-03-18T06:50:57;99314.41;;;19.37;37.94
56630;BME280;42502;40.732;-74.254;2023-03-18T06:52:59;99324.03;;;19.39;38.12
56630;BME280;42502;40.732;-74.254;2023-03-18T06:54:59;99323.22;;;19.39;37.93
56630;BME280;42502;40.732;-74.254;2023-03-18T06:57:00;99324.03;;;19.39;37.84
56630;BME280;42502;40.732;-74.254;2023-03-18T06:59:01;99320.00;;;19.37;37.90
56630;BME280;42502;40.732;-74.254;2023-03-18T07:01:02;99325.19;;;19.34;38.03
56630;BME280;42502;40.732;-74.254;2023-03-18T07:03:03;99328.03;;;19.38;37.77
56630;BME280;42502;40.732;-74.254;2023-03-18T07:05:04;99339.22;;;19.38;37.96
56630;BME280;42502;40.732;-74.254;2023-03-18T07:07:06;99344.03;;;19.38;37.76
56630;BME280;42502;40.732;-74.254;2023-03-18T07:09:07;99340.78;;;19.35;37.77
56630;BME280;42502;40.732;-74.254;2023-03-18T07:11:10;99360.84;;;19.38;37.78
56630;BME280;42502;40.732;-74.254;2023-03-18T07:13:11;99362.81;;;19.37;37.86
56630;BME280;42502;40.732;-74.254;2023-03-18T07:15:15;99367.59;;;19.37;37.86
56630;BME280;42502;40.732;-74.254;2023-03-18T07:17:16;99362.38;;;19.35;38.02
56630;BME280;42502;40.732;-74.254;2023-03-18T07:19:17;99356.78;;;19.35;38.08
56630;BME280;42502;40.732;-74.254;2023-03-18T07:21:18;99376.00;;;19.37;37.87
56630;BME280;42502;40.732;-74.254;2023-03-18T07:23:19;99378.00;;;19.36;37.85
56630;BME280;42502;40.732;-74.254;2023-03-18T07:25:20;99375.59;;;19.34;37.73
56630;BME280;42502;40.732;-74.254;2023-03-18T07:27:30;99368.75;;;19.32;38.05
56630;BME280;42502;40.732;-74.254;2023-03-18T07:29:31;99373.59;;;19.35;37.94
56630;BME280;42502;40.732;-74.254;2023-03-18T07:31:34;99386.78;;;19.34;37.86
56630;BME280;42502;40.732;-74.254;2023-03-18T07:33:36;99359.94;;;19.30;37.85
56630;BME280;42502;40.732;-74.254;2023-03-18T07:35:40;99360.72;;;19.30;37.71
56630;BME280;42502;40.732;-74.254;2023-03-18T07:37:41;99365.56;;;19.33;37.79
56630;BME280;42502;40.732;-74.254;2023-03-18T07:39:44;99352.75;;;19.32;37.82
56630;BME280;42502;40.732;-74.254;2023-03-18T07:41:46;99351.16;;;19.31;37.82
56630;BME280;42502;40.732;-74.254;2023-03-18T07:43:48;99354.69;;;19.28;37.90
56630;BME280;42502;40.732;-74.254;2023-03-18T07:45:52;99345.53;;;19.31;37.82
56630;BME280;42502;40.732;-74.254;2023-03-18T07:47:53;99355.53;;;19.32;37.74
56630;BME280;42502;40.732;-74.254;2023-03-18T07:49:54;99349.16;;;19.32;37.81
56630;BME280;42502;40.732;-74.254;2023-03-18T07:51:56;99353.13;;;19.31;37.89
56630;BME280;42502;40.732;-74.254;2023-03-18T07:53:57;99347.84;;;19.26;37.68
56630;BME280;42502;40.732;-74.254;2023-03-18T07:55:58;99355.50;;;19.29;37.76
56630;BME280;42502;40.732;-74.254;2023-03-18T07:58:00;99373.91;;;19.30;37.82
56630;BME280;42502;40.732;-74.254;2023-03-18T08:00:04;99378.69;;;19.29;37.95
56630;BME280;42502;40.732;-74.254;2023-03-18T08:02:06;99387.09;;;19.29;37.81
56630;BME280;42502;40.732;-74.254;2023-03-18T08:04:08;99388.31;;;19.28;37.89
56630;BME280;42502;40.732;-74.254;2023-03-18T08:06:09;99383.50;;;19.29;37.75
56630;BME280;42502;40.732;-74.254;2023-03-18T08:08:11;99375.06;;;19.25;37.78
56630;BME280;42502;40.732;-74.254;2023-03-18T08:10:11;99379.41;;;19.23;37.79
56630;BME280;42502;40.732;-74.254;2023-03-18T08:12:14;99392.28;;;19.27;37.79
56630;BME280;42502;40.732;-74.254;2023-03-18T08:14:15;99401.84;;;19.26;37.67
56630;BME280;42502;40.732;-74.254;2023-03-18T08:16:16;99402.59;;;19.23;37.93
56630;BME280;42502;40.732;-74.254;2023-03-18T08:18:18;99418.66;;;19.26;37.73
56630;BME280;42502;40.732;-74.254;2023-03-18T08:20:19;99414.63;;;19.24;37.81
56630;BME280;42502;40.732;-74.254;2023-03-18T08:22:23;99412.56;;;19.21;37.83
56630;BME280;42502;40.732;-74.254;2023-03-18T08:24:25;99430.59;;;19.23;37.64
56630;BME280;42502;40.732;-74.254;2023-03-18T08:26:29;99425.44;;;19.25;37.88
56630;BME280;42502;40.732;-74.254;2023-03-18T08:28:30;99400.63;;;19.24;37.68
56630;BME280;42502;40.732;-74.254;2023-03-18T08:30:31;99405.41;;;19.23;37.90
56630;BME280;42502;40.732;-74.254;2023-03-18T08:32:32;99422.94;;;19.20;37.96
56630;BME280;42502;40.732;-74.254;2023-03-18T08:34:33;99415.34;;;19.21;37.88
56630;BME280;42502;40.732;-74.254;2023-03-18T08:36:35;99413.38;;;19.21;37.81
56630;BME280;42502;40.732;-74.254;2023-03-18T08:38:36;99420.59;;;19.22;37.90
56630;BME280;42502;40.732;-74.254;2023-03-18T08:40:39;99430.19;;;19.21;37.83
56630;BME280;42502;40.732;-74.254;2023-03-18T08:42:40;99439.75;;;19.20;37.63
56630;BME280;42502;40.732;-74.254;2023-03-18T08:44:41;99441.38;;;19.21;37.51
56630;BME280;42502;40.732;-74.254;2023-03-18T08:46:42;99456.94;;;19.18;37.66
56630;BME280;42502;40.732;-74.254;2023-03-18T08:48:43;99456.56;;;19.20;37.85
56630;BME280;42502;40.732;-74.254;2023-03-18T08:50:44;99447.72;;;19.18;37.87
56630;BME280;42502;40.732;-74.254;2023-03-18T08:52:48;99452.94;;;19.20;37.85
56630;BME280;42502;40.732;-74.254;2023-03-18T08:54:49;99451.69;;;19.17;37.87
56630;BME280;42502;40.732;-74.254;2023-03-18T08:56:50;99459.66;;;19.15;37.88
56630;BME280;42502;40.732;-74.254;2023-03-18T08:58:52;99460.91;;;19.17;37.60
56630;BME280;42502;40.732;-74.254;2023-03-18T09:00:54;99446.09;;;19.17;37.62
56630;BME280;42502;40.732;-74.254;2023-03-18T09:02:55;99457.31;;;19.17;37.73
56630;BME280;42502;40.732;-74.254;2023-03-18T09:04:56;99468.50;;;19.17;37.62
56630;BME280;42502;40.732;-74.254;2023-03-18T09:06:58;99471.66;;;19.15;37.79
56630;BME280;42502;40.732;-74.254;2023-03-18T09:09:00;99482.06;;;19.15;37.86
56630;BME280;42502;40.732;-74.254;2023-03-18T09:11:01;99479.66;;;19.13;37.95
56630;BME280;42502;40.732;-74.254;2023-03-18T09:13:02;99474.84;;;19.14;37.65
56630;BME280;42502;40.732;-74.254;2023-03-18T09:15:05;99460.72;;;19.07;37.73
56630;BME280;42502;40.732;-74.254;2023-03-18T09:17:07;99474.84;;;19.14;37.67
56630;BME280;42502;40.732;-74.254;2023-03-18T09:19:08;99490.84;;;19.13;37.67
56630;BME280;42502;40.732;-74.254;2023-03-18T09:21:09;99490.00;;;19.13;37.67
56630;BME280;42502;40.732;-74.254;2023-03-18T09:23:11;99471.63;;;19.12;37.65
56630;BME280;42502;40.732;-74.254;2023-03-18T09:25:13;99491.22;;;19.12;37.76
56630;BME280;42502;40.732;-74.254;2023-03-18T09:27:14;99487.59;;;19.11;37.67
56630;BME280;42502;40.732;-74.254;2023-03-18T09:29:20;99488.78;;;19.10;37.77
56630;BME280;42502;40.732;-74.254;2023-03-18T09:31:24;99495.19;;;19.11;37.56
56630;BME280;42502;40.732;-74.254;2023-03-18T09:33:26;99479.56;;;19.10;37.63
56630;BME280;42502;40.732;-74.254;2023-03-18T09:35:36;99488.28;;;19.05;37.63
56630;BME280;42502;40.732;-74.254;2023-03-18T09:37:38;99521.94;;;19.08;37.72
56630;BME280;42502;40.732;-74.254;2023-03-18T09:39:40;99525.09;;;19.07;37.56
56630;BME280;42502;40.732;-74.254;2023-03-18T09:44:24;99541.88;;;19.07;37.79
56630;BME280;42502;40.732;-74.254;2023-03-18T09:46:36;99560.69;;;19.06;37.54
56630;BME280;42502;40.732;-74.254;2023-03-18T09:49:19;99554.66;;;19.04;37.81
56630;BME280;42502;40.732;-74.254;2023-03-18T09:57:47;99565.03;;;19.04;37.64
56630;BME280;42502;40.732;-74.254;2023-03-18T09:59:52;99569.03;;;19.03;37.49
56630;BME280;42502;40.732;-74.254;2023-03-18T10:01:57;99574.63;;;19.03;37.44
56630;BME280;42502;40.732;-74.254;2023-03-18T10:06:15;99579.75;;;19.00;37.54
56630;BME280;42502;40.732;-74.254;2023-03-18T10:10:49;99580.97;;;18.99;37.46
56630;BME280;42502;40.732;-74.254;2023-03-18T10:13:17;99590.91;;;18.97;37.34
56630;BME280;42502;40.732;-74.254;2023-03-18T10:15:33;99586.47;;;18.96;37.52
56630;BME280;42502;40.732;-74.254;2023-03-18T10:17:40;99576.91;;;18.97;37.41
56630;BME280;42502;40.732;-74.254;2023-03-18T10:19:53;99571.63;;;18.92;37.36
56630;BME280;42502;40.732;-74.254;2023-03-18T10:24:41;99576.84;;;18.93;37.71
56630;BME280;42502;40.732;-74.254;2023-03-18T10:26:53;99587.56;;;18.91;37.42
56630;BME280;42502;40.732;-74.254;2023-03-18T10:39:58;99632.72;;;18.90;37.48
56630;BME280;42502;40.732;-74.254;2023-03-18T10:42:08;99651.50;;;18.89;37.40
56630;BME280;42502;40.732;-74.254;2023-03-18T10:44:21;99644.66;;;18.87;37.44
56630;BME280;42502;40.732;-74.254;2023-03-18T10:46:24;99653.13;;;18.90;37.29
56630;BME280;42502;40.732;-74.254;2023-03-18T10:48:37;99659.91;;;18.89;37.43
56630;BME280;42502;40.732;-74.254;2023-03-18T10:50:43;99648.72;;;18.89;37.26
56630;BME280;42502;40.732;-74.254;2023-03-18T10:55:36;99659.34;;;18.83;37.23
56630;BME280;42502;40.732;-74.254;2023-03-18T10:57:38;99669.03;;;18.86;37.28
56630;BME280;42502;40.732;-74.254;2023-03-18T10:59:42;99661.34;;;18.83;37.18
56630;BME280;42502;40.732;-74.254;2023-03-18T11:02:32;99653.31;;;18.81;37.47
56630;BME280;42502;40.732;-74.254;2023-03-18T11:04:44;99667.41;;;18.85;37.20
56630;BME280;42502;40.732;-74.254;2023-03-18T11:09:00;99662.88;;;18.80;37.46
56630;BME280;42502;40.732;-74.254;2023-03-18T11:13:25;99678.50;;;18.81;37.08
56630;BME280;42502;40.732;-74.254;2023-03-18T11:15:28;99683.28;;;18.81;37.23